| Record Date MM/DD/YYYY | Record Time HH:MM:SS | Record Julian Date NNN day of the year | Air Temperature Max (Degrees Fahrenheit F) | Time Max Air Temperature HH:MM:SS This is the time of max air temp for the prior hour interval listed for record [Time]. | Air Temperature Min (Degrees Fahrenheit F) | Time Min Air Temperature HH:MM:SS This is the time of min air temp for the prior hour interval listed for record [Time]. | Air Temperature Observed (Degrees Fahrenheit F) This is an instantaneous reading at the record [Time]. | Relative Humidity Max (Percent) | Time Max Relative Humidity HH:MM:SS This is the time of max relative humidity for the prior hour interval listed for record [Time]. | Relative Humidity Min (Percent) | Time Min Relative Humidity HH:MM:SS This is the time of min relative humidity for the prior hour interval listed for record [Time]. | Relative Humidity Observed (Percent) This is an instantaneous reading at the record [Time]. | Precipitation (Inches n.nn) rain fall that occurred during the prior hour interval listed for record [Time]. | Wind Speed (Miles Per Hour) Resultant Speed that occurred during the prior hour interval listed for record [Time]. | Wind Direction (Degrees) Resultant Direction that occurred during the prior hour interval listed for record [Time]. | Solar Radiation (Langley's) that occurred during the prior hour interval listed for record [Time]. | Soil Temperature Average at 2 inch depth (Degrees Fahrenheit F) that occurred during the prior hour interval listed for record [Time]. | Soil Temperature Observed at 2 inch depth (Degrees Fahrenheit F) This is an instantaneous reading at the record [Time]. | Soil Temperature Average at 4 inch depth (Degrees Fahrenheit F) that occurred during the prior hour interval listed for record [Time]. | Soil Temperature Observed at 4 inch depth (Degrees Fahrenheit F) This is an instantaneous reading at the record [Time]. |
|---|---|---|---|---|---|---|---|---|---|---|---|---|---|---|---|---|---|---|---|---|
| 04/30/2026 | 0:00:00 | 120 | 65 | 23:00:02 | 63 | 23:48:00 | 63 | 92 | 23:44:00 | 91 | 23:05:00 | 91.6 | 0.04 | 7.7 | 3 | 0 | 71 | 71 | 72 | 71 |
| 04/30/2026 | 1:00:00 | 120 | 63 | 0:00:01 | 61 | 0:59:00 | 61 | 92 | 0:03:01 | 89 | 0:57:04 | 89.4 | 0 | 9.0 | 9 | 0 | 71 | 70 | 71 | 71 |
| 04/30/2026 | 2:00:00 | 120 | 61 | 1:05:02 | 59 | 1:49:05 | 59 | 90 | 2:00:00 | 89 | 1:09:01 | 90.4 | 0.08 | 8.8 | 19 | 0 | 70 | 69 | 70 | 70 |
| 04/30/2026 | 3:00:00 | 120 | 60 | 2:02:01 | 59 | 2:14:05 | 59 | 91 | 2:41:03 | 90 | 2:00:04 | 90.8 | 0.02 | 5.1 | 20 | 0 | 69 | 69 | 70 | 69 |
| 04/30/2026 | 4:00:00 | 120 | 60 | 3:16:05 | 59 | 3:37:00 | 59 | 91 | 3:55:00 | 91 | 3:21:01 | 91.3 | 0 | 4.0 | 14 | 0 | 69 | 69 | 69 | 69 |
| 04/30/2026 | 5:00:00 | 120 | 60 | 4:25:04 | 59 | 4:01:00 | 60 | 92 | 4:24:03 | 91 | 4:53:03 | 90.6 | 0 | 5.9 | 9 | 0 | 68 | 68 | 69 | 69 |
| 04/30/2026 | 6:00:00 | 120 | 60 | 5:01:01 | 59 | 5:55:03 | 59 | 92 | 5:37:04 | 91 | 5:03:01 | 90.5 | 0 | 6.5 | 5 | 1 | 68 | 68 | 68 | 68 |
| 04/30/2026 | 7:00:00 | 120 | 59 | 6:05:04 | 58 | 6:50:02 | 59 | 91 | 6:05:02 | 86 | 6:58:01 | 86.5 | 0 | 8.8 | 8 | 9 | 68 | 68 | 68 | 68 |
| 04/30/2026 | 8:00:00 | 120 | 59 | 7:58:02 | 58 | 7:28:01 | 59 | 87 | 7:01:01 | 81 | 7:59:00 | 81.5 | 0 | 8.1 | 18 | 21 | 68 | 68 | 68 | 68 |
| 04/30/2026 | 9:00:00 | 120 | 62 | 8:57:02 | 59 | 8:01:05 | 62 | 82 | 8:00:02 | 73 | 8:59:02 | 73.95 | 0 | 8.0 | 26 | 38 | 68 | 68 | 68 | 68 |
| 04/30/2026 | 10:00:00 | 120 | 64 | 9:53:03 | 61 | 9:04:05 | 64 | 75 | 9:31:00 | 68 | 9:57:02 | 69.13 | 0 | 6.1 | 45 | 52 | 69 | 69 | 69 | 69 |
| 04/30/2026 | 11:00:00 | 120 | 66 | 10:27:03 | 63 | 10:00:01 | 65 | 73 | 10:06:04 | 65 | 10:50:05 | 69.09 | 0 | 6.6 | 13 | 63 | 70 | 71 | 70 | 71 |
| 04/30/2026 | 12:00:00 | 120 | 68 | 11:59:05 | 65 | 11:11:02 | 68 | 71 | 11:32:05 | 63 | 11:49:04 | 64.53 | 0 | 6.7 | 10 | 63 | 72 | 72 | 71 | 72 |
| 04/30/2026 | 13:00:00 | 120 | 69 | 12:46:03 | 67 | 12:11:00 | 68 | 67 | 12:28:03 | 59 | 12:36:05 | 62.29 | 0 | 8.1 | 24 | 74 | 73 | 73 | 72 | 73 |
| 04/30/2026 | 14:00:00 | 120 | 70 | 13:47:03 | 68 | 13:01:02 | 69 | 64 | 13:00:02 | 55 | 13:48:04 | 62.26 | 0 | 8.1 | 10 | 60 | 74 | 74 | 73 | 73 |
| 04/30/2026 | 15:00:00 | 120 | 69 | 14:00:04 | 67 | 14:57:03 | 67 | 64 | 14:32:01 | 56 | 14:13:05 | 63.17 | 0 | 8.5 | 12 | 36 | 74 | 73 | 74 | 73 |
| 04/30/2026 | 16:00:00 | 120 | 68 | 15:05:00 | 66 | 15:39:03 | 66 | 66 | 15:05:00 | 61 | 15:01:04 | 62.11 | 0 | 8.3 | 5 | 20 | 73 | 73 | 73 | 73 |
| 04/30/2026 | 17:00:00 | 120 | 66 | 16:02:04 | 65 | 16:31:02 | 65 | 69 | 16:43:04 | 62 | 16:00:05 | 66.07 | 0 | 5.5 | 9 | 10 | 72 | 72 | 72 | 72 |
| 04/30/2026 | 18:00:00 | 120 | 65 | 17:01:00 | 63 | 17:59:01 | 63 | 71 | 17:56:03 | 65 | 17:04:02 | 69.57 | 0 | 4.6 | 7 | 4 | 71 | 71 | 72 | 71 |
| 04/30/2026 | 19:00:00 | 120 | 63 | 18:08:02 | 62 | 18:56:01 | 62 | 71 | 18:45:01 | 67 | 18:07:01 | 70.17 | 0 | 4.5 | 12 | 0 | 71 | 70 | 71 | 70 |
| 04/30/2026 | 20:00:00 | 120 | 62 | 19:17:04 | 61 | 19:59:05 | 61 | 72 | 19:25:05 | 69 | 19:16:03 | 71.33 | 0 | 4.7 | 13 | 0 | 70 | 69 | 70 | 70 |
| 04/30/2026 | 21:00:00 | 120 | 62 | 20:05:00 | 61 | 20:40:02 | 61 | 73 | 20:39:03 | 70 | 20:55:04 | 71.91 | 0 | 4.9 | 17 | 0 | 69 | 69 | 69 | 69 |
| 04/30/2026 | 22:00:00 | 120 | 61 | 21:04:05 | 60 | 21:59:05 | 60 | 78 | 21:59:01 | 71 | 21:03:05 | 77.18 | 0 | 2.4 | 26 | 0 | 68 | 68 | 69 | 69 |
| 04/30/2026 | 23:00:00 | 120 | 60 | 22:00:03 | 59 | 22:46:00 | 59 | 78 | 22:45:02 | 76 | 22:54:02 | 76.47 | 0 | 3.9 | 9 | 0 | 68 | 68 | 68 | 68 |
| 05/01/2026 | 0:00:00 | 121 | 59 | 23:02:00 | 58 | 23:59:05 | 58 | 78 | 23:20:01 | 76 | 23:35:02 | 77.71 | 0 | 4.6 | 7 | 0 | 67 | 67 | 68 | 68 |
| 05/01/2026 | 1:00:00 | 121 | 58 | 0:00:00 | 57 | 0:57:03 | 57 | 79 | 0:09:02 | 78 | 0:31:00 | 78.4 | 0 | 4.8 | 10 | 0 | 67 | 67 | 67 | 67 |
| 05/01/2026 | 2:00:00 | 121 | 57 | 1:01:04 | 56 | 1:43:05 | 56 | 80 | 1:59:05 | 78 | 1:00:00 | 79.78 | 0 | 3.4 | 16 | 0 | 66 | 66 | 67 | 67 |
| 05/01/2026 | 3:00:00 | 121 | 57 | 2:27:03 | 56 | 2:57:03 | 56 | 80 | 2:02:05 | 78 | 2:26:04 | 78.26 | 0 | 4.5 | 12 | 0 | 66 | 66 | 66 | 66 |
| 05/01/2026 | 4:00:00 | 121 | 56 | 3:00:00 | 56 | 3:52:00 | 56 | 79 | 3:51:03 | 78 | 3:17:03 | 78.16 | 0 | 4.0 | 7 | 0 | 66 | 65 | 66 | 66 |
| 05/01/2026 | 5:00:00 | 121 | 56 | 4:08:01 | 55 | 4:50:00 | 55 | 80 | 4:48:04 | 77 | 4:08:05 | 79.2 | 0 | 3.2 | 11 | 0 | 65 | 65 | 66 | 66 |
| 05/01/2026 | 6:00:00 | 121 | 56 | 5:17:00 | 55 | 5:33:00 | 55 | 82 | 5:53:04 | 78 | 5:13:04 | 79.69 | 0 | 1.5 | 22 | 1 | 65 | 65 | 65 | 65 |
| 05/01/2026 | 7:00:00 | 121 | 57 | 6:58:04 | 55 | 6:03:02 | 56 | 80 | 6:00:04 | 76 | 6:53:00 | 77.19 | 0 | 4.4 | 4 | 3 | 65 | 65 | 65 | 65 |
| 05/01/2026 | 8:00:00 | 121 | 57 | 7:58:00 | 56 | 7:01:05 | 57 | 78 | 7:27:01 | 75 | 7:04:02 | 75.79 | 0 | 5.0 | 358 | 7 | 65 | 65 | 65 | 65 |
| 05/01/2026 | 9:00:00 | 121 | 58 | 8:58:05 | 57 | 8:00:05 | 58 | 77 | 8:55:03 | 74 | 8:41:03 | 74.73 | 0 | 4.8 | 14 | 11 | 65 | 65 | 65 | 65 |
| 05/01/2026 | 10:00:00 | 121 | 60 | 9:59:05 | 58 | 9:00:01 | 60 | 75 | 9:00:05 | 68 | 9:55:05 | 69.24 | 0 | 4.6 | 8 | 21 | 65 | 65 | 65 | 66 |
| 05/01/2026 | 11:00:00 | 121 | 62 | 10:44:03 | 60 | 10:02:01 | 62 | 70 | 10:00:05 | 62 | 10:35:01 | 65.49 | 0 | 4.5 | 21 | 29 | 66 | 66 | 66 | 66 |
| 05/01/2026 | 12:00:00 | 121 | 62 | 11:36:00 | 62 | 11:49:00 | 62 | 67 | 11:35:05 | 60 | 11:49:01 | 63.15 | 0 | 5.7 | 13 | 24 | 66 | 67 | 66 | 67 |
| 05/01/2026 | 13:00:00 | 121 | 62 | 12:02:04 | 61 | 12:41:03 | 61 | 70 | 12:32:05 | 62 | 12:07:03 | 64.2 | 0 | 6.4 | 358 | 23 | 67 | 67 | 67 | 67 |
| 05/01/2026 | 14:00:00 | 121 | 63 | 13:51:00 | 61 | 13:00:01 | 63 | 68 | 13:31:05 | 62 | 13:54:01 | 64.46 | 0 | 6.8 | 7 | 31 | 67 | 67 | 67 | 67 |
| 05/01/2026 | 15:00:00 | 121 | 63 | 14:03:01 | 62 | 14:58:04 | 62 | 66 | 14:42:01 | 61 | 14:16:01 | 61.65 | 0 | 6.5 | 13 | 20 | 67 | 67 | 67 | 67 |
| 05/01/2026 | 16:00:00 | 121 | 62 | 15:00:02 | 61 | 15:59:02 | 61 | 66 | 15:38:02 | 61 | 15:19:02 | 62.49 | 0 | 5.4 | 18 | 10 | 67 | 67 | 67 | 67 |
| 05/01/2026 | 17:00:00 | 121 | 61 | 16:01:02 | 60 | 16:54:01 | 60 | 70 | 16:38:04 | 62 | 16:00:00 | 68.68 | 0 | 4.3 | 19 | 6 | 67 | 66 | 67 | 67 |
| 05/01/2026 | 18:00:00 | 121 | 61 | 17:00:03 | 59 | 17:55:05 | 59 | 80 | 17:59:05 | 68 | 17:03:01 | 79.86 | 0 | 1.8 | 29 | 2 | 66 | 66 | 67 | 66 |
| 05/01/2026 | 19:00:00 | 121 | 59 | 18:00:00 | 57 | 18:57:02 | 57 | 83 | 18:24:00 | 77 | 18:41:05 | 81.5 | 0 | 1.4 | 34 | 0 | 66 | 66 | 66 | 66 |
| 05/01/2026 | 20:00:00 | 121 | 58 | 19:59:05 | 57 | 19:16:03 | 58 | 84 | 19:43:02 | 81 | 20:00:00 | 80.9 | 0 | 1.4 | 359 | 0 | 66 | 66 | 66 | 66 |
| 05/01/2026 | 21:00:00 | 121 | 58 | 20:11:05 | 57 | 20:49:03 | 58 | 84 | 20:51:01 | 81 | 20:01:03 | 83.1 | 0 | 1.2 | 343 | 0 | 65 | 65 | 66 | 66 |
| 05/01/2026 | 22:00:00 | 121 | 58 | 21:21:04 | 57 | 21:31:03 | 58 | 83 | 21:01:03 | 82 | 21:59:05 | 81.6 | 0 | 1.8 | 336 | 0 | 65 | 65 | 66 | 65 |
| 05/01/2026 | 23:00:00 | 121 | 58 | 22:59:05 | 57 | 22:22:05 | 58 | 83 | 22:20:04 | 79 | 22:59:05 | 78.52 | 0 | 3.0 | 341 | 0 | 65 | 65 | 65 | 65 |
| 05/02/2026 | 0:00:00 | 122 | 58 | 23:01:04 | 58 | 23:56:00 | 58 | 79 | 23:00:00 | 77 | 0:00:00 | 76.96 | 0 | 4.9 | 356 | 0 | 65 | 64 | 65 | 65 |
| 05/02/2026 | 1:00:00 | 122 | 58 | 0:00:02 | 57 | 0:52:04 | 57 | 77 | 0:03:02 | 69 | 1:00:00 | 69.28 | 0 | 5.3 | 17 | 0 | 64 | 64 | 65 | 64 |
| 05/02/2026 | 2:00:00 | 122 | 57 | 1:01:02 | 56 | 1:59:04 | 56 | 72 | 1:18:01 | 66 | 1:55:04 | 67.41 | 0 | 4.8 | 10 | 0 | 64 | 64 | 64 | 64 |
| 05/02/2026 | 3:00:00 | 122 | 56 | 2:10:04 | 56 | 2:46:05 | 56 | 67 | 2:01:04 | 61 | 2:54:04 | 61.37 | 0 | 6.9 | 12 | 0 | 63 | 63 | 64 | 64 |
| 05/02/2026 | 4:00:00 | 122 | 56 | 3:00:00 | 55 | 3:58:02 | 55 | 64 | 3:36:00 | 60 | 3:23:03 | 61.86 | 0 | 5.1 | 20 | 0 | 63 | 63 | 63 | 63 |
| 05/02/2026 | 5:00:00 | 122 | 55 | 4:00:00 | 52 | 4:34:02 | 54 | 70 | 4:34:00 | 62 | 4:00:01 | 67.58 | 0 | 4.5 | 2 | 0 | 62 | 62 | 63 | 63 |
| 05/02/2026 | 6:00:00 | 122 | 54 | 5:02:00 | 53 | 5:36:00 | 53 | 70 | 5:40:02 | 67 | 5:01:04 | 69.15 | 0 | 5.5 | 360 | 2 | 62 | 62 | 63 | 62 |
| 05/02/2026 | 7:00:00 | 122 | 56 | 6:34:00 | 53 | 6:00:03 | 56 | 69 | 6:00:01 | 63 | 6:52:00 | 63.72 | 0 | 6.4 | 5 | 15 | 62 | 62 | 62 | 62 |
| 05/02/2026 | 8:00:00 | 122 | 58 | 8:00:00 | 56 | 7:02:01 | 58 | 66 | 7:26:05 | 61 | 7:41:02 | 65 | 0 | 6.9 | 10 | 22 | 62 | 62 | 62 | 63 |
| 05/02/2026 | 9:00:00 | 122 | 62 | 8:58:00 | 58 | 8:01:04 | 62 | 65 | 8:00:01 | 49 | 8:48:01 | 49.15 | 0 | 7.4 | 17 | 53 | 63 | 64 | 63 | 64 |
| 05/02/2026 | 10:00:00 | 122 | 64 | 9:47:05 | 61 | 9:05:02 | 64 | 52 | 9:03:03 | 42 | 9:59:03 | 43.82 | 0 | 9.5 | 11 | 68 | 65 | 66 | 64 | 65 |
| 05/02/2026 | 11:00:00 | 122 | 67 | 10:56:01 | 64 | 10:00:00 | 66 | 49 | 10:15:00 | 38 | 10:49:00 | 41.72 | 0 | 11.1 | 8 | 78 | 66 | 67 | 66 | 67 |
| 05/02/2026 | 12:00:00 | 122 | 68 | 11:59:02 | 66 | 11:01:05 | 68 | 47 | 11:05:01 | 35 | 11:49:03 | 37.9 | 0 | 11.5 | 350 | 83 | 68 | 69 | 67 | 68 |
| 05/02/2026 | 13:00:00 | 122 | 69 | 12:31:00 | 67 | 12:10:04 | 69 | 43 | 12:12:00 | 31 | 12:42:01 | 36.95 | 0 | 12.3 | 357 | 82 | 70 | 70 | 69 | 69 |
| 05/02/2026 | 14:00:00 | 122 | 71 | 13:37:01 | 67 | 13:44:04 | 70 | 45 | 13:48:04 | 33 | 13:06:02 | 36.52 | 0 | 10.6 | 356 | 71 | 70 | 71 | 70 | 70 |
| 05/02/2026 | 15:00:00 | 122 | 70 | 14:25:00 | 67 | 14:31:01 | 68 | 42 | 14:11:03 | 33 | 14:02:05 | 35.15 | 0 | 10.5 | 334 | 55 | 71 | 71 | 70 | 70 |
| 05/02/2026 | 16:00:00 | 122 | 70 | 15:08:03 | 68 | 15:59:00 | 68 | 44 | 15:48:05 | 34 | 15:08:05 | 39.64 | 0 | 9.9 | 336 | 45 | 70 | 70 | 70 | 70 |
| 05/02/2026 | 17:00:00 | 122 | 70 | 16:17:03 | 68 | 16:03:00 | 69 | 42 | 16:13:02 | 35 | 16:21:05 | 39.06 | 0 | 8.6 | 322 | 30 | 70 | 70 | 70 | 69 |
| 05/02/2026 | 18:00:00 | 122 | 69 | 17:00:01 | 66 | 17:59:05 | 66 | 43 | 17:56:03 | 36 | 17:13:03 | 41.19 | 0 | 6.7 | 328 | 15 | 69 | 68 | 69 | 69 |
| 05/02/2026 | 19:00:00 | 122 | 67 | 18:01:01 | 60 | 18:59:04 | 60 | 53 | 18:59:00 | 40 | 18:09:00 | 53.06 | 0 | 4.0 | 321 | 2 | 68 | 67 | 68 | 68 |
| 05/02/2026 | 20:00:00 | 122 | 61 | 19:04:00 | 56 | 19:59:05 | 56 | 69 | 19:58:05 | 53 | 19:03:02 | 69.09 | 0 | 0.7 | 40 | 0 | 67 | 66 | 67 | 67 |
| 05/02/2026 | 21:00:00 | 122 | 56 | 20:00:00 | 53 | 20:59:05 | 53 | 77 | 20:56:04 | 67 | 20:03:02 | 76.92 | 0 | 0.3 | 121 | 0 | 66 | 65 | 66 | 66 |
| 05/02/2026 | 22:00:00 | 122 | 54 | 21:16:05 | 52 | 21:57:05 | 52 | 84 | 21:59:03 | 76 | 21:08:03 | 83.6 | 0 | 0.1 | 45 | 0 | 65 | 65 | 66 | 65 |
| 05/02/2026 | 23:00:00 | 122 | 52 | 22:05:03 | 51 | 22:44:02 | 51 | 87 | 22:40:03 | 83 | 22:00:04 | 85.2 | 0 | 0.7 | 319 | 0 | 64 | 64 | 65 | 64 |
| 05/03/2026 | 0:00:00 | 123 | 55 | 23:56:04 | 50 | 23:31:02 | 55 | 88 | 23:29:03 | 69 | 23:57:02 | 69.3 | 0 | 3.1 | 350 | 0 | 63 | 63 | 64 | 64 |
| 05/03/2026 | 1:00:00 | 123 | 55 | 0:01:01 | 52 | 0:58:05 | 52 | 74 | 0:59:05 | 69 | 0:01:04 | 73.79 | 0 | 5.2 | 28 | 0 | 63 | 62 | 63 | 63 |
| 05/03/2026 | 2:00:00 | 123 | 53 | 1:01:04 | 51 | 1:49:04 | 51 | 77 | 1:50:02 | 73 | 1:02:04 | 76.06 | 0 | 3.5 | 28 | 0 | 62 | 62 | 63 | 63 |
| 05/03/2026 | 3:00:00 | 123 | 51 | 2:04:02 | 48 | 2:57:02 | 48 | 82 | 2:59:05 | 76 | 2:00:02 | 82.2 | 0 | 1.3 | 18 | 0 | 62 | 61 | 62 | 62 |
| 05/03/2026 | 4:00:00 | 123 | 48 | 3:00:00 | 46 | 3:59:04 | 46 | 87 | 3:46:03 | 82 | 3:00:01 | 87.2 | 0 | 0.6 | 322 | 0 | 61 | 61 | 62 | 62 |
| 05/03/2026 | 5:00:00 | 123 | 46 | 4:09:00 | 44 | 4:53:02 | 44 | 90 | 4:57:04 | 87 | 4:00:00 | 89.8 | 0 | 0.6 | 119 | 0 | 61 | 60 | 61 | 61 |
| 05/03/2026 | 6:00:00 | 123 | 48 | 6:00:00 | 44 | 5:10:00 | 48 | 91 | 5:59:04 | 90 | 5:03:04 | 91.3 | 0 | 0.0 | 0 | 5 | 60 | 60 | 61 | 61 |
| 05/03/2026 | 7:00:00 | 123 | 54 | 7:00:00 | 48 | 6:00:00 | 54 | 91 | 6:02:03 | 81 | 6:59:05 | 80.8 | 0 | 0.8 | 345 | 20 | 60 | 60 | 61 | 61 |
| 05/03/2026 | 8:00:00 | 123 | 58 | 7:53:02 | 54 | 7:01:04 | 58 | 81 | 7:00:00 | 65 | 7:59:01 | 65.81 | 0 | 3.5 | 96 | 38 | 61 | 62 | 61 | 62 |
| 05/03/2026 | 9:00:00 | 123 | 62 | 8:54:05 | 58 | 8:00:03 | 62 | 67 | 8:09:01 | 52 | 8:59:05 | 52.37 | 0 | 3.4 | 111 | 54 | 63 | 64 | 63 | 63 |
| 05/03/2026 | 10:00:00 | 123 | 66 | 9:49:03 | 62 | 9:00:03 | 65 | 56 | 9:01:02 | 47 | 9:57:01 | 47.89 | 0 | 3.2 | 101 | 69 | 65 | 67 | 65 | 66 |
| 05/03/2026 | 11:00:00 | 123 | 69 | 10:55:05 | 65 | 10:10:00 | 69 | 53 | 10:24:02 | 44 | 10:56:03 | 45.31 | 0 | 2.3 | 176 | 78 | 68 | 70 | 67 | 68 |
| 05/03/2026 | 12:00:00 | 123 | 70 | 11:47:05 | 68 | 11:25:03 | 69 | 53 | 11:47:05 | 41 | 11:23:04 | 42.89 | 0 | 3.5 | 207 | 82 | 71 | 73 | 70 | 71 |
| 05/03/2026 | 13:00:00 | 123 | 71 | 12:51:05 | 69 | 12:16:01 | 71 | 49 | 12:31:04 | 39 | 12:52:03 | 41.3 | 0 | 5.3 | 218 | 82 | 74 | 74 | 72 | 73 |
| 05/03/2026 | 14:00:00 | 123 | 73 | 13:29:05 | 71 | 13:00:04 | 73 | 49 | 13:38:00 | 38 | 13:45:01 | 39.4 | 0 | 4.4 | 244 | 75 | 75 | 75 | 73 | 74 |
| 05/03/2026 | 15:00:00 | 123 | 74 | 14:31:04 | 72 | 14:13:05 | 73 | 45 | 14:18:03 | 35 | 14:07:01 | 38.8 | 0 | 4.4 | 256 | 64 | 76 | 76 | 74 | 75 |
| 05/03/2026 | 16:00:00 | 123 | 75 | 15:14:00 | 73 | 15:00:00 | 75 | 42 | 15:34:03 | 34 | 15:52:01 | 37.16 | 0 | 3.8 | 244 | 50 | 75 | 75 | 75 | 74 |
| 05/03/2026 | 17:00:00 | 123 | 75 | 16:53:04 | 74 | 16:13:05 | 74 | 42 | 16:25:03 | 32 | 16:55:00 | 35.15 | 0 | 4.7 | 255 | 33 | 75 | 74 | 74 | 74 |
| 05/03/2026 | 18:00:00 | 123 | 75 | 17:05:04 | 72 | 18:00:00 | 72 | 42 | 17:59:04 | 32 | 17:21:05 | 40.98 | 0 | 2.7 | 285 | 15 | 73 | 72 | 73 | 72 |
| 05/03/2026 | 19:00:00 | 123 | 72 | 18:00:00 | 62 | 19:00:00 | 62 | 67 | 18:57:02 | 40 | 18:00:02 | 65.51 | 0 | 1.1 | 73 | 2 | 72 | 71 | 72 | 71 |
| 05/03/2026 | 20:00:00 | 123 | 62 | 19:01:05 | 58 | 20:00:00 | 58 | 71 | 19:45:04 | 65 | 19:00:04 | 70.6 | 0 | 0.4 | 83 | 0 | 70 | 69 | 70 | 70 |
| 05/03/2026 | 21:00:00 | 123 | 58 | 20:00:00 | 54 | 20:59:05 | 54 | 82 | 21:00:00 | 71 | 20:00:01 | 82.2 | 0 | 0.5 | 142 | 0 | 69 | 68 | 69 | 68 |
| 05/03/2026 | 22:00:00 | 123 | 54 | 21:00:01 | 52 | 21:58:05 | 52 | 86 | 22:00:00 | 82 | 21:00:00 | 86.2 | 0 | 0.8 | 134 | 0 | 67 | 67 | 68 | 67 |
| 05/03/2026 | 23:00:00 | 123 | 53 | 22:04:04 | 51 | 22:52:00 | 52 | 89 | 22:59:01 | 86 | 22:00:01 | 88.2 | 0 | 0.7 | 122 | 0 | 66 | 66 | 67 | 67 |
| 05/04/2026 | 0:00:00 | 124 | 52 | 23:35:02 | 51 | 23:26:00 | 52 | 90 | 23:34:03 | 88 | 23:02:03 | 88.6 | 0 | 0.9 | 127 | 0 | 66 | 65 | 66 | 66 |
| 05/04/2026 | 1:00:00 | 124 | 52 | 0:00:00 | 50 | 0:59:03 | 50 | 89 | 0:55:01 | 88 | 0:09:00 | 89.1 | 0 | 0.3 | 102 | 0 | 65 | 64 | 65 | 65 |
| 05/04/2026 | 2:00:00 | 124 | 50 | 1:27:03 | 49 | 1:49:05 | 50 | 91 | 1:55:05 | 89 | 1:01:01 | 91 | 0 | 1.1 | 132 | 0 | 64 | 64 | 65 | 64 |
| 05/04/2026 | 3:00:00 | 124 | 50 | 2:00:02 | 49 | 2:53:05 | 49 | 92 | 3:00:00 | 90 | 2:06:03 | 91.7 | 0 | 1.3 | 142 | 0 | 63 | 63 | 64 | 64 |
| 05/04/2026 | 4:00:00 | 124 | 50 | 3:28:01 | 49 | 3:59:04 | 49 | 92 | 3:00:04 | 91 | 3:32:03 | 91 | 0 | 1.1 | 159 | 0 | 63 | 63 | 64 | 63 |
| 05/04/2026 | 5:00:00 | 124 | 49 | 4:05:02 | 48 | 4:27:00 | 49 | 92 | 4:49:01 | 91 | 4:27:01 | 91.6 | 0 | 0.8 | 136 | 0 | 63 | 62 | 63 | 63 |
| 05/04/2026 | 6:00:00 | 124 | 52 | 6:00:00 | 48 | 5:08:04 | 52 | 92 | 5:26:05 | 91 | 5:32:01 | 92 | 0 | 0.9 | 124 | 4 | 62 | 62 | 63 | 63 |
| 05/04/2026 | 7:00:00 | 124 | 60 | 6:59:00 | 52 | 6:00:01 | 60 | 92 | 6:00:00 | 75 | 6:59:03 | 75.25 | 0 | 2.0 | 178 | 22 | 62 | 62 | 63 | 63 |
| 05/04/2026 | 8:00:00 | 124 | 66 | 7:57:02 | 60 | 7:00:01 | 66 | 76 | 7:01:00 | 64 | 8:00:00 | 64.37 | 0 | 5.6 | 223 | 37 | 63 | 64 | 63 | 64 |
| 05/04/2026 | 9:00:00 | 124 | 71 | 8:57:00 | 66 | 8:00:05 | 71 | 67 | 8:06:00 | 55 | 8:57:04 | 56.52 | 0 | 6.3 | 239 | 53 | 65 | 67 | 65 | 66 |
| 05/04/2026 | 10:00:00 | 124 | 74 | 9:43:00 | 71 | 9:07:04 | 74 | 61 | 9:00:04 | 51 | 9:34:02 | 56.35 | 0 | 8.0 | 237 | 66 | 68 | 69 | 67 | 68 |
| 05/04/2026 | 11:00:00 | 124 | 77 | 10:58:02 | 73 | 10:09:00 | 76 | 58 | 10:58:02 | 47 | 10:59:02 | 50.36 | 0 | 6.8 | 223 | 77 | 70 | 71 | 69 | 70 |
| 05/04/2026 | 12:00:00 | 124 | 77 | 11:56:00 | 75 | 11:06:01 | 77 | 54 | 11:07:04 | 39 | 11:22:01 | 46.02 | 0 | 7.0 | 213 | 84 | 73 | 74 | 71 | 72 |
| 05/04/2026 | 13:00:00 | 124 | 78 | 12:57:03 | 77 | 12:02:03 | 77 | 51 | 12:35:05 | 40 | 12:53:02 | 43.87 | 0 | 7.5 | 194 | 81 | 75 | 76 | 73 | 74 |
| 05/04/2026 | 14:00:00 | 124 | 79 | 13:58:03 | 77 | 13:00:00 | 79 | 50 | 13:03:01 | 38 | 13:28:02 | 46.68 | 0 | 8.0 | 196 | 76 | 76 | 76 | 75 | 75 |
| 05/04/2026 | 15:00:00 | 124 | 79 | 14:00:00 | 77 | 14:34:01 | 78 | 47 | 14:00:00 | 37 | 14:05:03 | 40.75 | 0 | 8.7 | 206 | 58 | 76 | 76 | 75 | 75 |
| 05/04/2026 | 16:00:00 | 124 | 79 | 15:02:02 | 77 | 15:07:01 | 78 | 48 | 15:27:04 | 39 | 15:47:03 | 42.33 | 0 | 8.6 | 187 | 46 | 75 | 75 | 75 | 75 |
| 05/04/2026 | 17:00:00 | 124 | 79 | 16:03:02 | 77 | 16:53:03 | 77 | 47 | 16:59:05 | 41 | 16:07:00 | 46.87 | 0 | 7.7 | 192 | 28 | 75 | 74 | 74 | 74 |
| 05/04/2026 | 18:00:00 | 124 | 77 | 17:03:01 | 74 | 17:59:05 | 74 | 51 | 17:49:02 | 44 | 17:07:01 | 48.86 | 0 | 5.9 | 185 | 14 | 73 | 73 | 73 | 73 |
| 05/04/2026 | 19:00:00 | 124 | 74 | 18:00:01 | 69 | 18:59:01 | 69 | 60 | 18:59:02 | 48 | 18:02:04 | 60.1 | 0 | 3.3 | 168 | 1 | 72 | 71 | 72 | 72 |
| 05/04/2026 | 20:00:00 | 124 | 69 | 19:02:03 | 63 | 19:55:00 | 64 | 74 | 19:53:05 | 60 | 19:06:01 | 71.26 | 0 | 0.9 | 118 | 0 | 71 | 70 | 71 | 70 |
| 05/04/2026 | 21:00:00 | 124 | 65 | 20:08:04 | 62 | 20:54:03 | 62 | 77 | 20:54:02 | 70 | 20:10:03 | 75.33 | 0 | 0.9 | 151 | 0 | 70 | 69 | 70 | 69 |
| 05/04/2026 | 22:00:00 | 124 | 62 | 21:03:05 | 61 | 21:40:05 | 61 | 76 | 21:38:04 | 74 | 21:11:02 | 75.29 | 0 | 0.9 | 183 | 0 | 69 | 68 | 69 | 68 |
| 05/04/2026 | 23:00:00 | 124 | 61 | 22:00:00 | 59 | 22:53:03 | 60 | 79 | 22:50:00 | 75 | 22:00:00 | 78.11 | 0 | 1.2 | 152 | 0 | 68 | 67 | 68 | 68 |
| 05/05/2026 | 0:00:00 | 125 | 61 | 23:44:04 | 60 | 23:00:00 | 60 | 78 | 23:00:02 | 74 | 23:46:02 | 74.86 | 0 | 2.8 | 173 | 0 | 67 | 67 | 67 | 67 |
| 05/05/2026 | 1:00:00 | 125 | 61 | 0:38:04 | 60 | 0:09:03 | 60 | 76 | 0:10:01 | 73 | 0:40:02 | 74.03 | 0 | 4.0 | 172 | 0 | 66 | 66 | 67 | 66 |
| 05/05/2026 | 2:00:00 | 125 | 60 | 1:32:04 | 59 | 1:58:03 | 59 | 76 | 1:59:05 | 73 | 1:33:03 | 75.78 | 0 | 4.0 | 173 | 0 | 66 | 66 | 66 | 66 |
| 05/05/2026 | 3:00:00 | 125 | 59 | 2:06:02 | 58 | 2:59:05 | 58 | 79 | 2:57:04 | 76 | 2:07:01 | 78.81 | 0 | 4.1 | 167 | 0 | 65 | 65 | 66 | 66 |
| 05/05/2026 | 4:00:00 | 125 | 58 | 3:00:02 | 57 | 3:58:00 | 57 | 81 | 3:59:04 | 79 | 3:00:01 | 80.9 | 0 | 3.6 | 166 | 0 | 65 | 65 | 65 | 65 |
| 05/05/2026 | 5:00:00 | 125 | 58 | 4:07:01 | 56 | 4:59:02 | 56 | 84 | 4:56:02 | 81 | 4:09:04 | 83.7 | 0 | 3.7 | 161 | 0 | 65 | 64 | 65 | 65 |
| 05/05/2026 | 6:00:00 | 125 | 58 | 5:59:00 | 56 | 5:09:05 | 58 | 85 | 5:32:05 | 84 | 5:59:02 | 84 | 0 | 2.7 | 149 | 5 | 64 | 64 | 65 | 65 |
| 05/05/2026 | 7:00:00 | 125 | 63 | 6:59:05 | 58 | 6:00:01 | 63 | 84 | 6:01:00 | 78 | 6:59:05 | 77.7 | 0 | 3.1 | 141 | 18 | 64 | 65 | 65 | 65 |
| 05/05/2026 | 8:00:00 | 125 | 68 | 7:52:00 | 63 | 7:00:00 | 67 | 78 | 7:02:00 | 71 | 7:56:02 | 72.27 | 0 | 6.5 | 184 | 34 | 65 | 66 | 65 | 66 |
| 05/05/2026 | 9:00:00 | 125 | 70 | 8:54:04 | 67 | 8:00:02 | 70 | 74 | 8:01:00 | 69 | 8:37:04 | 70.37 | 0 | 7.4 | 200 | 45 | 67 | 68 | 66 | 67 |
| 05/05/2026 | 10:00:00 | 125 | 72 | 9:52:00 | 69 | 9:01:04 | 72 | 72 | 9:06:00 | 65 | 9:54:04 | 66.71 | 0 | 7.6 | 204 | 60 | 69 | 70 | 68 | 69 |
| 05/05/2026 | 11:00:00 | 125 | 75 | 10:52:00 | 72 | 10:16:05 | 74 | 70 | 10:29:04 | 63 | 10:56:04 | 65.3 | 0 | 8.3 | 184 | 61 | 71 | 71 | 70 | 70 |
| 05/05/2026 | 12:00:00 | 125 | 75 | 11:54:04 | 73 | 11:03:05 | 74 | 68 | 11:07:03 | 63 | 11:48:05 | 64.62 | 0 | 7.2 | 171 | 50 | 72 | 73 | 71 | 72 |
| 05/05/2026 | 13:00:00 | 125 | 75 | 12:11:03 | 74 | 12:59:02 | 74 | 67 | 12:11:03 | 62 | 12:21:05 | 66.39 | 0 | 8.7 | 170 | 30 | 73 | 72 | 72 | 72 |
| 05/05/2026 | 14:00:00 | 125 | 75 | 14:00:00 | 74 | 13:01:05 | 75 | 69 | 13:59:02 | 64 | 13:16:01 | 67.78 | 0 | 8.2 | 163 | 26 | 72 | 72 | 72 | 72 |
| 05/05/2026 | 15:00:00 | 125 | 75 | 14:01:03 | 74 | 14:50:04 | 74 | 71 | 14:53:02 | 66 | 14:02:02 | 69.74 | 0 | 9.1 | 162 | 24 | 72 | 72 | 72 | 72 |
| 05/05/2026 | 16:00:00 | 125 | 75 | 15:36:04 | 74 | 15:09:00 | 75 | 72 | 15:26:04 | 68 | 15:56:05 | 68.66 | 0 | 8.1 | 158 | 21 | 72 | 72 | 72 | 72 |
| 05/05/2026 | 17:00:00 | 125 | 76 | 16:39:00 | 74 | 16:21:05 | 75 | 70 | 16:59:04 | 68 | 16:41:01 | 70.08 | 0 | 8.7 | 162 | 14 | 72 | 72 | 72 | 71 |
| 05/05/2026 | 18:00:00 | 125 | 75 | 17:00:04 | 74 | 17:53:04 | 74 | 71 | 18:00:00 | 69 | 17:23:00 | 71.48 | 0 | 8.4 | 161 | 5 | 71 | 71 | 71 | 71 |
| 05/05/2026 | 19:00:00 | 125 | 74 | 18:03:02 | 73 | 18:55:03 | 73 | 74 | 18:55:05 | 71 | 18:01:03 | 73.73 | 0 | 6.4 | 158 | 0 | 71 | 71 | 71 | 70 |
| 05/05/2026 | 20:00:00 | 125 | 73 | 19:00:04 | 72 | 19:36:01 | 72 | 75 | 19:49:04 | 74 | 19:00:03 | 74.7 | 0 | 7.1 | 156 | 0 | 70 | 70 | 70 | 70 |
| 05/05/2026 | 21:00:00 | 125 | 73 | 20:15:00 | 72 | 20:59:05 | 72 | 76 | 20:47:00 | 74 | 20:12:00 | 75.96 | 0 | 7.0 | 165 | 0 | 70 | 70 | 70 | 70 |
| 05/05/2026 | 22:00:00 | 125 | 72 | 21:00:02 | 71 | 21:59:03 | 71 | 78 | 21:59:04 | 76 | 21:05:00 | 78.27 | 0 | 8.2 | 166 | 0 | 69 | 69 | 69 | 69 |
| 05/05/2026 | 23:00:00 | 125 | 71 | 22:03:00 | 71 | 22:25:02 | 71 | 80 | 22:59:01 | 78 | 22:04:03 | 79.65 | 0 | 7.8 | 171 | 0 | 69 | 69 | 69 | 69 |
| 05/06/2026 | 0:00:00 | 126 | 71 | 23:00:02 | 70 | 23:59:03 | 70 | 82 | 23:55:02 | 80 | 23:01:02 | 82.2 | 0 | 8.7 | 168 | 0 | 69 | 69 | 69 | 69 |
| 05/06/2026 | 1:00:00 | 126 | 70 | 0:38:03 | 69 | 0:47:01 | 70 | 84 | 0:59:03 | 82 | 0:00:00 | 84 | 0 | 7.7 | 177 | 0 | 69 | 68 | 69 | 68 |
| 05/06/2026 | 2:00:00 | 126 | 70 | 1:47:05 | 70 | 1:00:00 | 70 | 84 | 1:59:03 | 84 | 1:17:02 | 84.2 | 0 | 7.2 | 174 | 0 | 68 | 68 | 68 | 68 |
| 05/06/2026 | 3:00:00 | 126 | 70 | 2:25:03 | 70 | 2:15:01 | 70 | 85 | 2:53:02 | 84 | 2:03:03 | 84.7 | 0 | 6.4 | 173 | 0 | 68 | 68 | 68 | 68 |
| 05/06/2026 | 4:00:00 | 126 | 70 | 3:05:03 | 69 | 3:56:02 | 70 | 86 | 3:56:05 | 85 | 3:06:05 | 86 | 0 | 6.1 | 174 | 0 | 68 | 68 | 68 | 68 |
| 05/06/2026 | 5:00:00 | 126 | 70 | 4:53:01 | 69 | 4:01:00 | 70 | 86 | 4:23:05 | 85 | 4:55:02 | 85.3 | 0 | 5.8 | 179 | 0 | 68 | 68 | 68 | 68 |
| 05/06/2026 | 6:00:00 | 126 | 71 | 5:59:03 | 70 | 5:08:01 | 71 | 86 | 5:11:03 | 85 | 5:59:01 | 84.7 | 0 | 6.6 | 180 | 1 | 68 | 68 | 68 | 68 |
| 05/06/2026 | 7:00:00 | 126 | 72 | 6:58:01 | 71 | 6:02:00 | 72 | 85 | 6:27:05 | 84 | 6:59:04 | 83.9 | 0 | 6.8 | 181 | 10 | 69 | 69 | 68 | 69 |
| 05/06/2026 | 8:00:00 | 126 | 74 | 7:44:05 | 72 | 7:00:00 | 74 | 84 | 7:01:00 | 79 | 7:47:01 | 80.3 | 0 | 7.8 | 197 | 25 | 69 | 70 | 69 | 69 |
| 05/06/2026 | 9:00:00 | 126 | 77 | 8:48:00 | 74 | 8:02:03 | 76 | 81 | 8:03:05 | 77 | 8:48:03 | 78.5 | 0 | 8.3 | 206 | 40 | 70 | 71 | 70 | 70 |
| 05/06/2026 | 10:00:00 | 126 | 76 | 9:22:00 | 75 | 9:53:04 | 75 | 80 | 9:58:02 | 78 | 9:01:04 | 80.2 | 0 | 7.9 | 209 | 23 | 71 | 72 | 71 | 71 |
| 05/06/2026 | 11:00:00 | 126 | 79 | 10:59:04 | 75 | 10:07:04 | 79 | 81 | 10:14:00 | 76 | 11:00:00 | 76.04 | 0 | 8.0 | 203 | 34 | 72 | 72 | 71 | 71 |
| 05/06/2026 | 12:00:00 | 126 | 80 | 11:04:05 | 78 | 11:46:02 | 78 | 78 | 11:04:03 | 75 | 11:05:05 | 76.59 | 0 | 8.9 | 214 | 33 | 73 | 73 | 72 | 73 |
| 05/06/2026 | 13:00:00 | 126 | 80 | 12:36:04 | 78 | 12:04:02 | 79 | 77 | 12:56:02 | 74 | 12:38:00 | 76.47 | 0 | 0.8 | 206 | 37 | 73 | 74 | 73 | 73 |
| 05/06/2026 | 14:00:00 | 126 | 81 | 13:55:02 | 79 | 13:00:00 | 81 | 78 | 13:00:05 | 74 | 13:59:01 | 74.33 | 0 | 7.7 | 208 | 41 | 74 | 75 | 73 | 74 |
| 05/06/2026 | 15:00:00 | 126 | 81 | 14:11:03 | 79 | 14:58:03 | 79 | 78 | 15:00:00 | 74 | 14:13:00 | 78.01 | 0 | 7.6 | 219 | 32 | 75 | 75 | 74 | 74 |
| 05/06/2026 | 16:00:00 | 126 | 80 | 15:42:01 | 75 | 16:00:00 | 75 | 84 | 16:00:00 | 78 | 15:00:01 | 84 | 0 | 5.8 | 317 | 10 | 75 | 74 | 74 | 74 |
| 05/06/2026 | 17:00:00 | 126 | 75 | 16:00:01 | 64 | 16:59:03 | 64 | 91 | 16:57:05 | 84 | 16:00:00 | 90.9 | 0.76 | 13.9 | 339 | 3 | 74 | 72 | 73 | 72 |
| 05/06/2026 | 18:00:00 | 126 | 64 | 17:00:01 | 61 | 17:47:02 | 61 | 92 | 17:59:02 | 91 | 17:05:03 | 91.4 | 0 | 9.6 | 2 | 2 | 71 | 71 | 72 | 71 |
| 05/06/2026 | 19:00:00 | 126 | 61 | 18:50:03 | 61 | 18:03:04 | 61 | 92 | 18:21:01 | 91 | 18:52:01 | 91.3 | 0.01 | 5.0 | 10 | 0 | 70 | 70 | 71 | 70 |
| 05/06/2026 | 20:00:00 | 126 | 61 | 19:46:00 | 61 | 19:29:00 | 61 | 91 | 19:06:01 | 91 | 19:50:04 | 91.2 | 0 | 4.8 | 11 | 0 | 70 | 70 | 70 | 70 |
| 05/06/2026 | 21:00:00 | 126 | 61 | 20:38:04 | 60 | 20:50:02 | 60 | 91 | 20:12:05 | 91 | 20:58:00 | 90.8 | 0.01 | 4.4 | 357 | 0 | 69 | 69 | 70 | 69 |
| 05/06/2026 | 22:00:00 | 126 | 60 | 21:03:01 | 59 | 21:54:01 | 59 | 91 | 21:27:00 | 91 | 21:41:02 | 90.8 | 0 | 6.3 | 5 | 0 | 69 | 69 | 69 | 69 |
| 05/06/2026 | 23:00:00 | 126 | 59 | 22:00:00 | 58 | 22:59:04 | 58 | 91 | 22:56:05 | 91 | 22:14:04 | 91.1 | 0.02 | 7.2 | 2 | 0 | 68 | 68 | 69 | 68 |
| 05/07/2026 | 0:00:00 | 127 | 58 | 23:02:04 | 57 | 23:49:03 | 58 | 92 | 0:00:00 | 91 | 23:16:05 | 91.8 | 0.04 | 8.8 | 357 | 0 | 68 | 67 | 68 | 68 |
| 05/07/2026 | 1:00:00 | 127 | 58 | 0:02:05 | 57 | 0:30:03 | 57 | 92 | 0:59:01 | 92 | 0:08:02 | 92.2 | 0 | 7.5 | 349 | 0 | 67 | 67 | 67 | 67 |
| 05/07/2026 | 2:00:00 | 127 | 57 | 1:03:01 | 56 | 1:49:03 | 56 | 92 | 1:33:05 | 92 | 1:40:04 | 91.9 | 0 | 10.0 | 349 | 0 | 67 | 66 | 67 | 67 |
| 05/07/2026 | 3:00:00 | 127 | 56 | 2:58:01 | 56 | 2:09:03 | 56 | 92 | 2:12:04 | 92 | 2:59:05 | 91.7 | 0 | 6.7 | 357 | 0 | 66 | 66 | 67 | 66 |
| 05/07/2026 | 4:00:00 | 127 | 57 | 3:53:03 | 56 | 3:12:05 | 56 | 92 | 3:04:00 | 91 | 3:56:04 | 91.1 | 0 | 6.7 | 347 | 0 | 66 | 66 | 66 | 66 |
| Average | 64.32 | 62.22 | 63.22 | 74.43 | 68.79 | 71.51 | 0.01 | 5.32 | 18.83 | 68.06 | 68.03 | 68.07 | 68.06 | |||||||
| Total | 0.98 |